Fillmore, Iowa
Current Conditions -  °F | °C
As of 8:35 AM on Thursday 30 Oct 2014 (Local Time) from KMXO Reporting Station
Overcast Overcast  
Wind Chill: 37°   Ceiling: 6500
Heat Index: 37°   Visibility: 10mi
Dew Point: 36°   Wind: 0mph
Humidity: 93%   Direction: NA
Pressure: 30.1"   Gusts: NA
Location:  42.2695°N, 91.0027°W
Report Text: KMXO 301335Z AUTO 00000KT 10SM SCT060 BKN065 OVC080 03/02 A3010 RMK AO2
Loading
Personal Weather Stations






























Interactive Weather Map
Tropical Storm Tracking
New forecast layout! Learn more

10-Day Weather Forecast

Advertisements
Track Severe Weather on mobile